createdAt,value
2018-07-04T00:00:23.872Z,4.70
2018-07-04T00:02:57.573Z,6.83
2018-07-04T00:05:31.200Z,4.33
2018-07-04T00:08:04.839Z,5.47
2018-07-04T00:10:38.521Z,4.03
2018-07-04T00:13:12.044Z,4.00
2018-07-04T00:15:45.609Z,6.03
2018-07-04T00:18:19.158Z,4.47
2018-07-04T00:20:52.629Z,5.17
2018-07-04T00:23:26.221Z,4.60
2018-07-04T00:25:59.820Z,5.37
2018-07-04T00:28:33.513Z,6.23
2018-07-04T00:31:07.118Z,5.63
2018-07-04T00:33:40.681Z,4.00
2018-07-04T00:36:14.280Z,4.23
2018-07-04T00:38:47.890Z,5.20
2018-07-04T00:41:21.510Z,6.27
2018-07-04T00:43:54.995Z,5.33
2018-07-04T00:46:28.646Z,5.40
2018-07-04T00:49:02.404Z,6.93
2018-07-04T00:51:35.982Z,7.53
2018-07-04T00:54:09.658Z,4.60
2018-07-04T00:56:43.318Z,4.23
2018-07-04T00:59:17.022Z,5.77
2018-07-04T01:01:50.806Z,4.53
2018-07-04T01:04:24.484Z,4.17
2018-07-04T01:06:58.260Z,7.03
2018-07-04T01:09:31.812Z,6.50
2018-07-04T01:12:05.610Z,7.53
2018-07-04T01:14:39.226Z,5.87
2018-07-04T01:17:12.866Z,4.93
2018-07-04T01:19:46.572Z,4.77
2018-07-04T01:22:20.331Z,6.87
2018-07-04T01:24:53.944Z,4.30
2018-07-04T01:27:27.631Z,4.83
2018-07-04T01:30:01.164Z,8.97
2018-07-04T01:32:34.706Z,7.73
2018-07-04T01:35:08.380Z,5.73
2018-07-04T01:37:41.929Z,6.93
2018-07-04T01:40:15.483Z,4.87
2018-07-04T01:42:49.185Z,10.57
2018-07-04T01:45:22.993Z,6.50
2018-07-04T01:47:56.739Z,7.10
2018-07-04T01:50:30.269Z,5.77
2018-07-04T01:53:04.035Z,5.63
2018-07-04T01:55:37.642Z,8.37
2018-07-04T01:58:11.308Z,10.03
2018-07-04T02:00:44.984Z,5.70
2018-07-04T02:03:18.741Z,5.97
2018-07-04T02:05:52.547Z,6.50
2018-07-04T02:08:26.314Z,6.17
2018-07-04T02:10:59.918Z,6.37
2018-07-04T02:13:33.570Z,5.40
2018-07-04T02:16:07.205Z,6.87
2018-07-04T02:18:40.772Z,5.20
2018-07-04T02:21:14.493Z,6.87
2018-07-04T02:23:48.079Z,5.87
2018-07-04T02:26:21.685Z,6.23
2018-07-04T02:28:55.193Z,7.97
2018-07-04T02:31:28.654Z,5.90
2018-07-04T02:34:02.313Z,4.90
2018-07-04T02:36:35.823Z,5.80
2018-07-04T02:39:09.485Z,4.87
2018-07-04T02:41:43.161Z,4.90
2018-07-04T02:44:16.756Z,6.20
2018-07-04T02:46:50.475Z,7.37
2018-07-04T02:49:24.148Z,7.40
2018-07-04T02:51:57.917Z,8.50
2018-07-04T02:54:31.667Z,9.30
2018-07-04T02:57:05.277Z,7.50
2018-07-04T02:59:38.760Z,5.80
2018-07-04T03:02:12.301Z,5.50
2018-07-04T03:04:45.921Z,6.37
2018-07-04T03:07:19.602Z,6.67
2018-07-04T03:09:53.129Z,6.17
2018-07-04T03:12:26.828Z,7.50
2018-07-04T03:15:00.548Z,7.83
2018-07-04T03:17:34.530Z,6.23
2018-07-04T03:20:08.469Z,6.03
2018-07-04T03:22:42.217Z,6.83
2018-07-04T03:25:15.822Z,9.87
2018-07-04T03:27:49.449Z,7.07
2018-07-04T03:30:23.195Z,7.53
2018-07-04T03:32:56.950Z,8.83
2018-07-04T03:35:30.606Z,5.70
2018-07-04T03:38:04.181Z,6.63
2018-07-04T03:40:37.952Z,6.73
2018-07-04T03:43:11.578Z,7.73
2018-07-04T03:45:45.312Z,6.63
2018-07-04T03:48:19.092Z,7.80
2018-07-04T03:50:52.814Z,7.03
2018-07-04T03:53:26.590Z,7.53
2018-07-04T03:56:00.232Z,7.50
2018-07-04T03:58:33.744Z,6.53
2018-07-04T04:01:07.322Z,8.37
2018-07-04T04:03:41.029Z,7.13
2018-07-04T04:06:14.610Z,7.30
2018-07-04T04:08:49.063Z,7.83
2018-07-04T04:11:22.775Z,7.50
2018-07-04T04:13:56.442Z,6.80
2018-07-04T04:16:29.946Z,6.40
2018-07-04T04:19:03.530Z,7.53
2018-07-04T04:21:37.159Z,8.60
2018-07-04T04:24:10.700Z,10.13
2018-07-04T04:26:44.488Z,7.87
2018-07-04T04:29:18.174Z,8.57
2018-07-04T04:31:51.823Z,7.33
2018-07-04T04:34:25.589Z,8.83
2018-07-04T04:36:59.298Z,7.80
2018-07-04T04:39:32.859Z,10.10
2018-07-04T04:42:06.458Z,9.60
2018-07-04T04:44:40.102Z,8.27
2018-07-04T04:47:13.798Z,9.57
2018-07-04T04:49:47.410Z,9.90
2018-07-04T04:52:21.101Z,7.47
2018-07-04T04:54:54.855Z,8.33
2018-07-04T04:57:28.493Z,8.10
2018-07-04T05:00:02.126Z,9.07
2018-07-04T05:02:35.922Z,7.67
2018-07-04T05:05:09.835Z,10.13
2018-07-04T05:07:43.662Z,9.03
2018-07-04T05:10:19.544Z,10.13
2018-07-04T05:12:53.188Z,8.60
2018-07-04T05:15:26.759Z,10.70
2018-07-04T05:18:00.355Z,12.60
2018-07-04T05:20:33.945Z,8.33
2018-07-04T05:23:07.533Z,8.43
2018-07-04T05:25:41.295Z,8.87
2018-07-04T05:28:14.988Z,7.77
2018-07-04T05:30:48.558Z,8.03
2018-07-04T05:33:22.181Z,8.60
2018-07-04T05:35:56.637Z,9.77
2018-07-04T05:38:30.423Z,10.93
2018-07-04T05:41:05.411Z,11.57
2018-07-04T05:43:39.318Z,10.13
2018-07-04T05:46:13.130Z,9.73
2018-07-04T05:48:46.852Z,10.93
2018-07-04T05:51:20.618Z,9.63
2018-07-04T05:53:54.503Z,10.43
2018-07-04T05:56:28.282Z,12.17
2018-07-04T05:59:01.894Z,10.97
2018-07-04T06:01:35.670Z,12.20
2018-07-04T06:04:09.199Z,9.13
2018-07-04T06:06:42.697Z,11.40
2018-07-04T06:09:16.359Z,11.70
2018-07-04T06:11:50.053Z,11.27
2018-07-04T06:14:23.830Z,10.47
2018-07-04T06:16:57.515Z,10.10
2018-07-04T06:19:31.201Z,13.47
2018-07-04T06:22:04.825Z,11.97
2018-07-04T06:24:38.791Z,12.10
2018-07-04T06:27:12.574Z,12.37
2018-07-04T06:29:46.131Z,12.30
2018-07-04T06:32:19.902Z,11.23
2018-07-04T06:34:53.445Z,11.13
2018-07-04T06:37:26.989Z,12.40
2018-07-04T06:39:54.690Z,12.10
2018-07-04T06:42:22.285Z,11.07
2018-07-04T06:44:49.865Z,11.47
2018-07-04T06:47:17.521Z,11.03
2018-07-04T06:49:45.266Z,10.30
2018-07-04T06:52:12.827Z,12.30
2018-07-04T06:54:40.431Z,12.07
2018-07-04T06:57:08.332Z,14.70
2018-07-04T06:59:35.899Z,10.93
2018-07-04T07:02:12.177Z,15.03
2018-07-04T07:04:46.065Z,13.70
2018-07-04T07:07:19.887Z,14.73
2018-07-04T07:09:53.623Z,9.47
2018-07-04T07:12:27.210Z,11.37
2018-07-04T07:15:00.954Z,12.83
2018-07-04T07:17:34.613Z,11.10
2018-07-04T07:20:08.270Z,9.97
2018-07-04T07:22:42.036Z,13.40
2018-07-04T07:25:15.927Z,14.27
2018-07-04T07:27:50.189Z,9.37
2018-07-04T07:30:23.807Z,10.87
2018-07-04T07:32:57.583Z,12.37
2018-07-04T07:35:31.121Z,12.93
2018-07-04T07:38:04.949Z,11.67
2018-07-04T07:40:38.597Z,12.70
2018-07-04T07:43:12.283Z,9.67
2018-07-04T07:45:45.893Z,9.60
2018-07-04T07:48:19.537Z,13.17
2018-07-04T07:50:53.502Z,11.17
2018-07-04T07:53:27.069Z,11.83
2018-07-04T07:56:00.641Z,12.23
2018-07-04T07:58:34.269Z,11.87
2018-07-04T08:01:07.859Z,12.13
2018-07-04T08:03:41.510Z,9.40
2018-07-04T08:06:15.117Z,10.70
2018-07-04T08:08:48.875Z,13.60
2018-07-04T08:11:22.449Z,9.43
2018-07-04T08:13:55.964Z,11.43
2018-07-04T08:16:29.709Z,13.20
2018-07-04T08:19:03.369Z,12.03
2018-07-04T08:21:37.044Z,14.37
2018-07-04T08:24:10.628Z,12.67
2018-07-04T08:26:44.255Z,12.00
2018-07-04T08:29:17.822Z,14.93
2018-07-04T08:31:51.370Z,9.23
2018-07-04T08:34:25.235Z,13.50
2018-07-04T08:36:58.982Z,14.50
2018-07-04T08:39:32.570Z,15.13
2018-07-04T08:42:06.203Z,14.80
2018-07-04T08:44:40.042Z,13.57
2018-07-04T08:47:13.566Z,10.10
2018-07-04T08:49:47.202Z,10.63
2018-07-04T08:52:20.889Z,14.63
2018-07-04T08:54:54.585Z,15.33
2018-07-04T08:57:28.654Z,14.70
2018-07-04T09:00:02.261Z,12.10
2018-07-04T09:02:35.917Z,13.17
2018-07-04T09:05:09.406Z,12.97
2018-07-04T09:07:43.520Z,14.03
2018-07-04T09:10:17.206Z,13.93
2018-07-04T09:12:50.807Z,13.87
2018-07-04T09:15:24.492Z,13.33
2018-07-04T09:17:58.100Z,14.03
2018-07-04T09:20:31.902Z,13.63
2018-07-04T09:23:05.472Z,17.37
2018-07-04T09:25:39.186Z,16.83
2018-07-04T09:28:12.855Z,15.77
2018-07-04T09:30:46.554Z,12.07
2018-07-04T09:33:20.170Z,11.63
2018-07-04T09:35:53.931Z,15.30
2018-07-04T09:38:27.530Z,15.63
2018-07-04T09:41:01.154Z,14.07
2018-07-04T09:43:34.890Z,14.83
2018-07-04T09:46:08.479Z,16.93
2018-07-04T09:48:42.114Z,20.73
2018-07-04T09:51:15.843Z,16.90
2018-07-04T09:53:49.299Z,15.40
2018-07-04T09:56:22.957Z,17.60
2018-07-04T09:58:56.546Z,16.03
2018-07-04T10:01:30.184Z,13.30
2018-07-04T10:04:03.851Z,17.40
2018-07-04T10:06:37.362Z,19.33
2018-07-04T10:09:11.026Z,14.63
2018-07-04T10:11:44.682Z,14.60
2018-07-04T10:14:18.333Z,14.45
2018-07-04T10:16:52.016Z,13.10
2018-07-04T10:19:25.733Z,13.35
2018-07-04T10:21:59.400Z,13.32
2018-07-04T10:24:33.210Z,15.78
2018-07-04T10:27:06.872Z,17.32
2018-07-04T10:29:40.482Z,15.58
2018-07-04T10:32:14.621Z,14.75
2018-07-04T10:34:48.310Z,16.02
2018-07-04T10:37:22.020Z,15.40
2018-07-04T10:39:55.672Z,16.52
2018-07-04T10:42:29.436Z,16.23
2018-07-04T10:45:03.047Z,20.65
2018-07-04T10:47:36.738Z,17.15
2018-07-04T10:50:10.398Z,19.23
2018-07-04T10:52:44.924Z,17.37
2018-07-04T10:55:18.808Z,16.95
2018-07-04T10:57:52.360Z,17.35
2018-07-04T11:00:25.977Z,14.80
2018-07-04T11:02:59.593Z,15.65
2018-07-04T11:05:33.360Z,15.50
2018-07-04T11:08:06.866Z,16.77
2018-07-04T11:10:40.478Z,17.67
2018-07-04T11:13:14.008Z,14.28
2018-07-04T11:15:47.568Z,16.02
2018-07-04T11:18:21.198Z,14.35
2018-07-04T11:20:54.728Z,13.72
2018-07-04T11:23:28.313Z,14.10
2018-07-04T11:26:02.071Z,14.95
2018-07-04T11:28:35.678Z,14.65
2018-07-04T11:31:09.264Z,15.98
2018-07-04T11:33:42.989Z,15.20
2018-07-04T11:36:16.637Z,16.02
2018-07-04T11:38:50.356Z,15.03
2018-07-04T11:41:23.990Z,14.60
2018-07-04T11:43:57.566Z,14.83
2018-07-04T11:46:25.101Z,14.75
2018-07-04T11:48:53.405Z,17.62
2018-07-04T11:51:20.974Z,17.62
2018-07-04T11:53:48.512Z,14.23
2018-07-04T11:56:16.402Z,16.12
2018-07-04T11:58:43.997Z,16.30
2018-07-04T12:01:11.518Z,12.80
2018-07-04T12:03:45.188Z,12.25
2018-07-04T12:06:18.922Z,16.82
2018-07-04T12:08:46.511Z,12.55
2018-07-04T12:11:14.117Z,16.12
2018-07-04T12:13:41.668Z,15.68
2018-07-04T12:16:09.260Z,13.68
2018-07-04T12:18:36.808Z,14.30
2018-07-04T12:21:04.367Z,14.03
2018-07-04T12:23:31.932Z,12.85
2018-07-04T12:25:59.492Z,14.68
2018-07-04T12:28:27.119Z,12.95
2018-07-04T12:30:54.660Z,16.93
2018-07-04T12:33:22.236Z,14.70
2018-07-04T12:35:50.634Z,14.25
2018-07-04T12:38:18.190Z,16.30
2018-07-04T12:40:45.798Z,12.28
2018-07-04T12:43:13.312Z,16.23
2018-07-04T12:45:40.893Z,15.32
2018-07-04T12:48:10.236Z,15.03
2018-07-04T12:50:37.820Z,14.00
2018-07-04T12:53:05.352Z,15.48
2018-07-04T12:55:42.592Z,14.98
2018-07-04T12:58:17.256Z,13.55
2018-07-04T13:00:51.094Z,15.63
2018-07-04T13:03:24.669Z,14.10
2018-07-04T13:05:58.264Z,13.58
2018-07-04T13:08:32.018Z,14.23
2018-07-04T13:11:05.604Z,13.78
2018-07-04T13:13:39.314Z,14.78
2018-07-04T13:16:12.907Z,14.80
2018-07-04T13:18:46.633Z,14.43
2018-07-04T13:21:20.159Z,14.18
2018-07-04T13:23:54.529Z,12.75
2018-07-04T13:26:28.285Z,11.88
2018-07-04T13:29:02.318Z,13.95
2018-07-04T13:31:35.791Z,13.53
2018-07-04T13:34:09.431Z,12.55
2018-07-04T13:36:42.928Z,12.37
2018-07-04T13:39:16.581Z,13.85
2018-07-04T13:41:50.313Z,13.40
2018-07-04T13:44:24.014Z,14.83
2018-07-04T13:46:57.535Z,12.98
2018-07-04T13:49:31.159Z,12.90
2018-07-04T13:52:04.775Z,12.98
2018-07-04T13:54:38.358Z,11.97
2018-07-04T13:57:11.873Z,10.13
2018-07-04T13:59:45.485Z,11.18
2018-07-04T14:02:19.029Z,13.22
2018-07-04T14:04:52.630Z,10.32
2018-07-04T14:07:26.278Z,10.18
2018-07-04T14:10:00.283Z,11.63
2018-07-04T14:12:34.033Z,10.72
2018-07-04T14:15:07.652Z,13.03
2018-07-04T14:17:41.287Z,9.68
2018-07-04T14:20:14.953Z,11.60
2018-07-04T14:22:48.603Z,12.98
2018-07-04T14:25:22.319Z,11.33
2018-07-04T14:27:56.155Z,13.78
2018-07-04T14:30:29.883Z,9.98
2018-07-04T14:33:03.505Z,12.37
2018-07-04T14:35:37.289Z,9.75
2018-07-04T14:38:11.091Z,10.72
2018-07-04T14:40:44.688Z,10.45
2018-07-04T14:43:18.330Z,12.30
2018-07-04T14:45:52.075Z,10.63
2018-07-04T14:48:25.676Z,10.65
2018-07-04T14:50:59.282Z,11.18
2018-07-04T14:53:32.962Z,10.28
2018-07-04T14:56:06.802Z,12.30
2018-07-04T14:58:40.326Z,10.13
2018-07-04T15:01:14.193Z,13.88
2018-07-04T15:03:47.747Z,11.50
2018-07-04T15:06:21.422Z,11.75
2018-07-04T15:08:55.349Z,13.25
2018-07-04T15:11:29.428Z,9.80
2018-07-04T15:14:03.372Z,9.83
2018-07-04T15:16:37.105Z,10.28
2018-07-04T15:19:10.879Z,9.53
2018-07-04T15:21:44.725Z,8.50
2018-07-04T15:24:18.589Z,9.75
2018-07-04T15:26:53.193Z,10.15
2018-07-04T15:29:27.034Z,9.68
2018-07-04T15:32:02.024Z,9.85
2018-07-04T15:34:38.464Z,11.45
2018-07-04T15:37:14.449Z,10.23
2018-07-04T15:39:48.189Z,8.53
2018-07-04T15:42:21.784Z,10.35
2018-07-04T15:44:55.871Z,8.65
2018-07-04T15:47:29.505Z,10.28
2018-07-04T15:50:03.151Z,13.13
2018-07-04T15:52:37.445Z,10.60
2018-07-04T15:55:11.245Z,9.48
2018-07-04T15:57:44.879Z,7.05
2018-07-04T16:00:19.697Z,8.10
2018-07-04T16:02:53.515Z,6.85
2018-07-04T16:05:27.047Z,8.95
2018-07-04T16:08:00.578Z,7.33
2018-07-04T16:10:34.062Z,12.98
2018-07-04T16:13:07.707Z,6.92
2018-07-04T16:15:41.425Z,9.40
2018-07-04T16:18:15.244Z,7.80
2018-07-04T16:20:48.929Z,8.53
2018-07-04T16:23:22.505Z,9.28
2018-07-04T16:25:56.111Z,7.78
2018-07-04T16:28:29.868Z,7.83
2018-07-04T16:31:03.557Z,7.42
2018-07-04T16:33:37.138Z,7.70
2018-07-04T16:36:10.815Z,6.95
2018-07-04T16:38:44.567Z,8.38
2018-07-04T16:41:18.481Z,7.33
2018-07-04T16:43:52.168Z,7.40
2018-07-04T16:46:26.464Z,7.03
2018-07-04T16:49:03.627Z,10.88
2018-07-04T16:51:39.237Z,11.75
2018-07-04T16:54:12.863Z,5.95
2018-07-04T16:56:46.445Z,5.05
2018-07-04T16:59:20.178Z,6.95
2018-07-04T17:01:53.724Z,5.83
2018-07-04T17:04:30.793Z,6.08
2018-07-04T17:07:04.346Z,7.55
2018-07-04T17:09:38.723Z,8.93
2018-07-04T17:12:12.435Z,6.60
2018-07-04T17:14:46.067Z,10.78
2018-07-04T17:17:19.810Z,7.33
2018-07-04T17:19:57.928Z,7.40
2018-07-04T17:22:32.083Z,5.25
2018-07-04T17:25:05.653Z,5.65
2018-07-04T17:27:42.971Z,5.72
2018-07-04T17:30:16.735Z,6.10
2018-07-04T17:32:50.499Z,7.05
2018-07-04T17:35:24.467Z,5.03
2018-07-04T17:37:58.442Z,6.65
2018-07-04T17:40:33.089Z,4.87
2018-07-04T17:43:06.861Z,5.15
2018-07-04T17:45:40.693Z,7.03
2018-07-04T17:48:14.385Z,4.78
2018-07-04T17:50:48.605Z,4.55
2018-07-04T17:53:22.185Z,5.97
2018-07-04T17:55:55.917Z,7.17
2018-07-04T17:58:29.458Z,7.87
2018-07-04T18:01:03.037Z,5.15
2018-07-04T18:03:36.515Z,6.53
2018-07-04T18:06:10.100Z,5.10
2018-07-04T18:08:43.857Z,7.42
2018-07-04T18:11:17.741Z,6.22
2018-07-04T18:13:51.481Z,8.80
2018-07-04T18:16:25.124Z,3.90
2018-07-04T18:18:58.741Z,8.70
2018-07-04T18:21:32.254Z,6.67
2018-07-04T18:24:07.313Z,4.42
2018-07-04T18:26:41.073Z,6.17
2018-07-04T18:29:14.915Z,5.15
2018-07-04T18:31:48.619Z,4.37
2018-07-04T18:34:22.362Z,5.20
2018-07-04T18:36:55.986Z,5.90
2018-07-04T18:39:29.595Z,6.33
2018-07-04T18:42:03.361Z,8.45
2018-07-04T18:44:37.040Z,6.22
2018-07-04T18:47:11.291Z,6.80
2018-07-04T18:49:44.977Z,4.62
2018-07-04T18:52:18.717Z,5.08
2018-07-04T18:54:52.210Z,5.92
2018-07-04T18:57:25.898Z,8.05
2018-07-04T18:59:59.533Z,4.87
2018-07-04T19:02:33.203Z,5.15
2018-07-04T19:05:07.218Z,5.47
2018-07-04T19:07:40.762Z,4.53
2018-07-04T19:10:14.374Z,6.87
2018-07-04T19:12:47.890Z,6.45
2018-07-04T19:15:21.454Z,4.25
2018-07-04T19:17:55.141Z,6.05
2018-07-04T19:20:28.698Z,4.53
2018-07-04T19:23:02.478Z,4.00
2018-07-04T19:25:36.097Z,5.37
2018-07-04T19:28:09.754Z,4.08
2018-07-04T19:30:43.278Z,6.40
2018-07-04T19:33:16.886Z,4.10
2018-07-04T19:35:50.828Z,5.13
2018-07-04T19:38:25.065Z,5.28
2018-07-04T19:40:58.795Z,3.90
2018-07-04T19:43:32.392Z,4.78
2018-07-04T19:46:06.149Z,7.50
2018-07-04T19:48:39.694Z,5.03
2018-07-04T19:51:13.305Z,5.12
2018-07-04T19:53:46.948Z,4.87
2018-07-04T19:56:20.669Z,8.93
2018-07-04T19:58:54.291Z,5.37
2018-07-04T20:01:27.851Z,4.03
2018-07-04T20:04:01.699Z,5.60
2018-07-04T20:06:35.176Z,5.70
2018-07-04T20:09:09.868Z,5.63
2018-07-04T20:11:43.606Z,5.33
2018-07-04T20:14:17.240Z,3.70
2018-07-04T20:16:50.922Z,4.93
2018-07-04T20:19:25.000Z,5.37
2018-07-04T20:21:58.807Z,6.93
2018-07-04T20:24:32.566Z,5.93
2018-07-04T20:27:06.195Z,6.60
2018-07-04T20:29:39.741Z,5.90
2018-07-04T20:32:13.333Z,5.53
2018-07-04T20:34:47.061Z,5.37
2018-07-04T20:37:20.709Z,4.53
2018-07-04T20:39:54.529Z,5.83
2018-07-04T20:42:28.593Z,7.20
2018-07-04T20:45:02.448Z,6.10
2018-07-04T20:47:36.119Z,6.77
2018-07-04T20:50:11.598Z,6.27
2018-07-04T20:52:45.174Z,7.20
2018-07-04T20:55:18.769Z,5.63
2018-07-04T20:57:53.910Z,5.70
2018-07-04T21:00:28.423Z,7.63
2018-07-04T21:03:02.270Z,5.60
2018-07-04T21:05:36.085Z,7.03
2018-07-04T21:08:11.569Z,7.63
2018-07-04T21:10:45.355Z,5.83
2018-07-04T21:13:19.393Z,4.87
2018-07-04T21:15:53.134Z,7.67
2018-07-04T21:18:26.837Z,5.10
2018-07-04T21:21:00.591Z,6.40
2018-07-04T21:23:34.223Z,7.07
2018-07-04T21:26:08.446Z,5.97
2018-07-04T21:28:41.988Z,6.67
2018-07-04T21:31:15.610Z,6.07
2018-07-04T21:33:50.199Z,6.97
2018-07-04T21:36:23.842Z,5.67
2018-07-04T21:38:58.655Z,7.03
2018-07-04T21:41:32.368Z,6.03
2018-07-04T21:44:06.014Z,6.90
2018-07-04T21:46:39.728Z,7.23
2018-07-04T21:49:13.233Z,8.43
2018-07-04T21:51:46.912Z,6.30
2018-07-04T21:54:20.480Z,5.20
2018-07-04T21:56:54.074Z,8.10
2018-07-04T21:59:27.793Z,7.30
2018-07-04T22:02:01.787Z,6.83
2018-07-04T22:04:35.502Z,6.17
2018-07-04T22:07:09.108Z,5.93
2018-07-04T22:09:43.464Z,6.67
2018-07-04T22:12:17.152Z,6.97
2018-07-04T22:14:50.640Z,4.43
2018-07-04T22:17:24.884Z,7.03
2018-07-04T22:19:58.434Z,7.37
2018-07-04T22:22:31.906Z,6.20
2018-07-04T22:25:05.552Z,7.37
2018-07-04T22:27:39.155Z,7.53
2018-07-04T22:30:12.800Z,6.70
2018-07-04T22:32:46.582Z,6.43
2018-07-04T22:35:20.327Z,5.97
2018-07-04T22:37:53.914Z,7.53
2018-07-04T22:40:27.418Z,6.03
2018-07-04T22:43:00.968Z,6.27
2018-07-04T22:45:34.513Z,8.53
2018-07-04T22:48:08.174Z,6.73
2018-07-04T22:50:41.890Z,6.00
2018-07-04T22:53:15.664Z,6.93
2018-07-04T22:55:49.133Z,6.63
2018-07-04T22:58:22.684Z,9.77
2018-07-04T23:00:56.370Z,7.10
2018-07-04T23:03:29.986Z,6.20
2018-07-04T23:06:03.606Z,6.43
2018-07-04T23:08:37.508Z,6.50
2018-07-04T23:11:11.327Z,7.03
2018-07-04T23:13:44.887Z,6.70
2018-07-04T23:16:18.450Z,10.07
2018-07-04T23:18:52.047Z,7.20
2018-07-04T23:21:25.808Z,10.13
2018-07-04T23:23:59.324Z,6.87
2018-07-04T23:26:32.914Z,6.43
2018-07-04T23:29:06.470Z,8.07
2018-07-04T23:31:40.056Z,8.43
2018-07-04T23:34:13.756Z,6.83
2018-07-04T23:36:47.462Z,6.43
2018-07-04T23:39:21.048Z,9.53
2018-07-04T23:41:54.684Z,7.33
2018-07-04T23:44:28.364Z,8.27
2018-07-04T23:47:01.831Z,7.40
2018-07-04T23:49:38.988Z,8.40
2018-07-04T23:52:12.692Z,7.43
2018-07-04T23:54:46.372Z,7.07
2018-07-04T23:57:20.061Z,7.90
2018-07-04T23:59:53.684Z,6.63
